createdAt,value
2022-12-11T00:02:22.681Z,92.55
2022-12-11T00:05:24.759Z,92.33
2022-12-11T00:08:26.887Z,91.63
2022-12-11T00:11:29.035Z,91.27
2022-12-11T00:14:32.118Z,91.54
2022-12-11T00:17:34.040Z,91.53
2022-12-11T00:20:37.974Z,91.41
2022-12-11T00:23:40.714Z,92.07
2022-12-11T00:26:42.771Z,90.92
2022-12-11T00:29:45.055Z,91.42
2022-12-11T00:32:47.179Z,91.51
2022-12-11T00:35:49.542Z,92.16
2022-12-11T00:38:53.063Z,91.91
2022-12-11T00:41:55.362Z,92.17
2022-12-11T00:44:58.045Z,93.20
2022-12-11T00:48:00.288Z,91.99
2022-12-11T00:51:02.325Z,91.92
2022-12-11T00:54:04.516Z,91.72
2022-12-11T00:57:06.521Z,93.03
2022-12-11T01:00:09.115Z,92.13
2022-12-11T01:03:13.640Z,92.44
2022-12-11T01:06:18.946Z,92.79
2022-12-11T01:09:39.712Z,92.87
2022-12-11T01:12:41.792Z,92.95
2022-12-11T01:15:46.210Z,93.47
2022-12-11T01:18:48.231Z,93.23
2022-12-11T01:21:50.205Z,93.27
2022-12-11T01:24:52.307Z,93.47
2022-12-11T01:27:56.197Z,93.12
2022-12-11T01:30:58.411Z,93.87
2022-12-11T01:34:00.495Z,93.49
2022-12-11T01:37:02.716Z,93.41
2022-12-11T01:40:06.949Z,93.89
2022-12-11T01:43:12.040Z,94.04
2022-12-11T01:46:14.122Z,93.65
2022-12-11T01:49:19.033Z,93.32
2022-12-11T01:52:22.726Z,92.40
2022-12-11T01:55:25.016Z,91.85
2022-12-11T01:58:35.371Z,92.77
2022-12-11T02:01:45.340Z,91.82
2022-12-11T02:04:49.687Z,92.43
2022-12-11T02:07:58.904Z,92.57
2022-12-11T02:11:17.366Z,93.62
2022-12-11T02:14:30.482Z,95.78
2022-12-11T02:17:44.443Z,96.97
2022-12-11T02:21:08.180Z,97.93
2022-12-11T02:24:27.418Z,98.43
2022-12-11T02:27:36.760Z,99.17
2022-12-11T02:30:42.052Z,98.98
2022-12-11T02:33:57.016Z,99.30
2022-12-11T02:37:04.510Z,98.63
2022-12-11T02:40:11.365Z,98.87
2022-12-11T02:43:16.232Z,97.51
2022-12-11T02:46:21.840Z,97.50
2022-12-11T02:49:25.278Z,96.74
2022-12-11T02:52:29.697Z,97.12
2022-12-11T02:55:34.694Z,96.55
2022-12-11T02:58:43.219Z,96.34
2022-12-11T03:01:46.625Z,96.93
2022-12-11T03:04:50.586Z,97.01
2022-12-11T03:07:52.562Z,98.49
2022-12-11T03:10:55.031Z,99.40
2022-12-11T03:14:00.350Z,98.95
2022-12-11T03:17:17.424Z,99.06
2022-12-11T03:20:33.618Z,98.66
2022-12-11T03:23:49.061Z,99.10
2022-12-11T03:26:57.268Z,98.86
2022-12-11T03:30:14.396Z,98.94
2022-12-11T03:33:24.841Z,98.41
2022-12-11T03:36:33.626Z,97.66
2022-12-11T03:39:43.814Z,96.56
2022-12-11T03:42:49.848Z,95.85
2022-12-11T03:45:53.913Z,95.37
2022-12-11T03:49:02.262Z,95.22
2022-12-11T03:52:06.214Z,94.64
2022-12-11T03:55:10.912Z,94.59
2022-12-11T03:58:13.125Z,95.33
2022-12-11T04:01:15.406Z,96.15
2022-12-11T04:04:17.586Z,97.02
2022-12-11T04:07:19.741Z,97.76
2022-12-11T04:10:21.753Z,96.60
2022-12-11T04:13:23.890Z,97.04
2022-12-11T04:16:25.898Z,97.12
2022-12-11T04:20:06.550Z,96.67
2022-12-11T04:23:33.354Z,96.82
2022-12-11T04:26:35.380Z,97.24
2022-12-11T04:29:37.349Z,94.80
2022-12-11T04:32:39.547Z,93.44
2022-12-11T04:35:41.582Z,93.59
2022-12-11T04:38:43.620Z,93.76
2022-12-11T04:41:45.564Z,93.00
2022-12-11T04:44:47.698Z,92.52
2022-12-11T04:47:49.680Z,92.74
2022-12-11T04:50:51.675Z,93.52
2022-12-11T04:53:53.753Z,94.20
2022-12-11T04:56:55.788Z,95.23
2022-12-11T04:59:57.759Z,95.31
2022-12-11T05:02:59.920Z,95.30
2022-12-11T05:06:02.039Z,94.34
2022-12-11T05:09:04.397Z,94.71
2022-12-11T05:12:06.439Z,95.23
2022-12-11T05:15:09.164Z,94.62
2022-12-11T05:18:11.583Z,94.70
2022-12-11T05:21:15.304Z,93.29
2022-12-11T05:24:17.423Z,92.41
2022-12-11T05:27:19.534Z,91.81
2022-12-11T05:30:21.466Z,91.72
2022-12-11T05:33:24.193Z,91.36
2022-12-11T05:36:32.306Z,91.29
2022-12-11T05:39:34.366Z,90.49
2022-12-11T05:42:36.391Z,90.63
2022-12-11T05:45:39.054Z,92.39
2022-12-11T05:48:42.072Z,93.88
2022-12-11T05:51:44.245Z,93.90
2022-12-11T05:54:50.077Z,94.23
2022-12-11T05:57:52.143Z,94.44
2022-12-11T06:00:54.517Z,93.88
2022-12-11T06:03:57.978Z,94.11
2022-12-11T06:07:00.758Z,94.14
2022-12-11T06:10:02.766Z,94.12
2022-12-11T06:13:04.971Z,92.18
2022-12-11T06:16:09.031Z,90.98
2022-12-11T06:19:15.979Z,90.91
2022-12-11T06:22:18.340Z,90.04
2022-12-11T06:25:20.312Z,90.50
2022-12-11T06:28:22.451Z,89.56
2022-12-11T06:31:24.488Z,91.38
2022-12-11T06:34:26.554Z,95.17
2022-12-11T06:37:28.554Z,99.65
2022-12-11T06:40:31.022Z,100.00
2022-12-11T06:43:34.726Z,100.00
2022-12-11T06:46:36.738Z,100.00
2022-12-11T06:49:38.698Z,100.00
2022-12-11T06:52:40.943Z,100.00
2022-12-11T06:55:43.776Z,100.00
2022-12-11T06:58:46.037Z,100.00
2022-12-11T07:01:48.427Z,100.00
2022-12-11T07:04:54.938Z,100.00
2022-12-11T07:07:57.637Z,100.00
2022-12-11T07:11:08.128Z,100.00
2022-12-11T07:14:10.156Z,100.00
2022-12-11T07:17:13.677Z,100.00
2022-12-11T07:20:16.040Z,100.00
2022-12-11T07:23:18.110Z,100.00
2022-12-11T07:26:22.371Z,100.00
2022-12-11T07:29:24.707Z,100.00
2022-12-11T07:32:27.015Z,100.00
2022-12-11T07:35:29.113Z,100.00
2022-12-11T07:38:31.233Z,100.00
2022-12-11T07:41:33.478Z,100.00
2022-12-11T07:44:35.598Z,100.00
2022-12-11T07:47:37.663Z,100.00
2022-12-11T07:50:40.085Z,100.00
2022-12-11T07:53:47.459Z,100.00
2022-12-11T07:56:53.477Z,100.00
2022-12-11T07:59:56.059Z,100.00
2022-12-11T08:02:58.108Z,100.00
2022-12-11T08:06:00.155Z,100.00
2022-12-11T08:09:06.238Z,100.00
2022-12-11T08:12:08.285Z,100.00
2022-12-11T08:15:11.124Z,100.00
2022-12-11T08:18:15.157Z,100.00
2022-12-11T08:21:20.679Z,100.00
2022-12-11T08:24:22.908Z,100.00
2022-12-11T08:27:24.917Z,100.00
2022-12-11T08:30:27.346Z,97.47
2022-12-11T08:33:29.466Z,96.85
2022-12-11T08:36:33.146Z,96.25
2022-12-11T08:39:35.691Z,96.23
2022-12-11T08:42:40.584Z,94.83
2022-12-11T08:45:42.727Z,94.50
2022-12-11T08:48:46.443Z,94.80
2022-12-11T08:51:48.438Z,94.63
2022-12-11T08:54:50.517Z,95.70
2022-12-11T08:57:53.609Z,91.96
2022-12-11T09:00:58.384Z,88.96
2022-12-11T09:04:00.480Z,87.60
2022-12-11T09:07:02.549Z,85.69
2022-12-11T09:10:06.482Z,83.50
2022-12-11T09:13:08.706Z,80.78
2022-12-11T09:16:17.242Z,80.55
2022-12-11T09:19:19.393Z,80.05
2022-12-11T09:22:21.650Z,79.52
2022-12-11T09:25:23.798Z,78.75
2022-12-11T09:28:26.181Z,79.80
2022-12-11T09:31:31.657Z,78.80
2022-12-11T09:34:34.210Z,77.73
2022-12-11T09:37:36.376Z,76.83
2022-12-11T09:40:43.470Z,77.79
2022-12-11T09:43:50.877Z,77.37
2022-12-11T09:46:53.019Z,77.42
2022-12-11T09:50:15.640Z,76.22
2022-12-11T09:53:37.139Z,76.90
2022-12-11T09:56:41.977Z,74.93
2022-12-11T10:00:17.977Z,74.45
2022-12-11T10:03:48.723Z,75.17
2022-12-11T10:07:02.601Z,77.48
2022-12-11T10:10:57.440Z,74.67
2022-12-11T10:14:38.450Z,73.95
2022-12-11T10:17:42.226Z,74.89
2022-12-11T10:20:45.468Z,76.92
2022-12-11T10:23:56.642Z,70.60
2022-12-11T10:27:10.454Z,65.83
2022-12-11T10:30:16.070Z,63.75
2022-12-11T10:33:50.364Z,65.34
2022-12-11T10:37:00.202Z,64.03
2022-12-11T10:40:02.839Z,63.73
2022-12-11T10:43:05.306Z,68.27
2022-12-11T10:46:20.355Z,72.35
2022-12-11T10:49:28.486Z,75.00
2022-12-11T10:52:38.246Z,74.43
2022-12-11T10:55:48.576Z,73.41
2022-12-11T10:58:52.232Z,71.19
2022-12-11T11:01:54.642Z,71.55
2022-12-11T11:04:59.306Z,70.95
2022-12-11T11:08:22.597Z,69.08
2022-12-11T11:11:24.559Z,64.63
2022-12-11T11:14:26.723Z,61.69
2022-12-11T11:17:33.772Z,65.85
2022-12-11T11:20:37.227Z,74.23
2022-12-11T11:23:46.235Z,71.49
2022-12-11T11:27:12.879Z,72.68
2022-12-11T11:30:23.154Z,75.88
2022-12-11T11:33:25.681Z,76.22
2022-12-11T11:36:30.902Z,77.77
2022-12-11T11:39:40.302Z,77.42
2022-12-11T11:43:04.263Z,76.48
2022-12-11T11:46:13.995Z,76.92
2022-12-11T11:49:16.739Z,77.56
2022-12-11T11:52:55.266Z,79.18
2022-12-11T11:56:06.130Z,78.96
2022-12-11T11:59:27.147Z,77.83
2022-12-11T12:02:29.466Z,77.38
2022-12-11T12:05:39.588Z,77.62
2022-12-11T12:09:03.561Z,78.70
2022-12-11T12:12:27.417Z,79.36
2022-12-11T12:15:54.928Z,79.17
2022-12-11T12:19:36.878Z,79.65
2022-12-11T12:23:00.645Z,79.96
2022-12-11T12:26:17.362Z,79.69
2022-12-11T12:29:35.375Z,79.57
2022-12-11T12:32:54.192Z,79.62
2022-12-11T12:36:21.667Z,79.75
2022-12-11T12:39:35.033Z,79.35
2022-12-11T12:43:00.128Z,80.30
2022-12-11T12:46:11.737Z,81.76
2022-12-11T12:49:33.819Z,82.83
2022-12-11T12:52:39.002Z,82.48
2022-12-11T12:55:41.820Z,82.43
2022-12-11T12:58:46.861Z,83.78
2022-12-11T13:01:55.480Z,82.67
2022-12-11T13:05:07.540Z,82.05
2022-12-11T13:08:11.561Z,82.15
2022-12-11T13:11:18.203Z,82.25
2022-12-11T13:14:21.301Z,82.11
2022-12-11T13:17:37.021Z,82.00
2022-12-11T13:20:51.236Z,81.73
2022-12-11T13:23:53.355Z,82.57
2022-12-11T13:26:55.959Z,82.17
2022-12-11T13:30:16.218Z,81.26
2022-12-11T13:33:19.526Z,81.74
2022-12-11T13:36:24.543Z,81.08
2022-12-11T13:39:32.733Z,81.94
2022-12-11T13:42:44.193Z,83.62
2022-12-11T13:45:50.620Z,81.97
2022-12-11T13:48:57.479Z,80.69
2022-12-11T13:52:00.946Z,79.69
2022-12-11T13:55:17.359Z,79.30
2022-12-11T13:58:21.741Z,78.42
2022-12-11T14:01:31.992Z,78.20
2022-12-11T14:04:35.073Z,78.19
2022-12-11T14:07:42.535Z,78.83
2022-12-11T14:10:44.567Z,78.66
2022-12-11T14:13:46.900Z,78.10
2022-12-11T14:16:51.160Z,78.48
2022-12-11T14:19:54.825Z,78.35
2022-12-11T14:23:18.512Z,79.35
2022-12-11T14:26:29.389Z,78.66
2022-12-11T14:29:33.407Z,79.51
2022-12-11T14:32:43.007Z,80.09
2022-12-11T14:35:46.844Z,80.27
2022-12-11T14:39:04.935Z,79.91
2022-12-11T14:42:20.058Z,79.69
2022-12-11T14:45:44.413Z,78.87
2022-12-11T14:49:10.022Z,79.66
2022-12-11T14:52:32.545Z,79.54
2022-12-11T14:55:38.250Z,79.42
2022-12-11T14:58:45.606Z,79.45
2022-12-11T15:01:57.861Z,79.58
2022-12-11T15:05:11.481Z,81.28
2022-12-11T15:08:13.666Z,81.19
2022-12-11T15:11:18.121Z,80.62
2022-12-11T15:14:22.277Z,81.39
2022-12-11T15:17:28.550Z,83.83
2022-12-11T15:20:30.941Z,86.26
2022-12-11T15:23:57.973Z,86.29
2022-12-11T15:27:01.289Z,87.69
2022-12-11T15:30:31.137Z,88.04
2022-12-11T15:33:47.096Z,89.11
2022-12-11T15:36:49.052Z,87.81
2022-12-11T15:39:52.514Z,88.86
2022-12-11T15:42:55.291Z,100.00
2022-12-11T15:46:02.163Z,100.00
2022-12-11T15:49:12.982Z,100.00
2022-12-11T15:52:15.033Z,100.00
2022-12-11T15:55:20.762Z,100.00
2022-12-11T15:58:24.674Z,100.00
2022-12-11T16:01:26.839Z,100.00
2022-12-11T16:04:28.919Z,100.00
2022-12-11T16:07:31.006Z,94.41
2022-12-11T16:10:32.927Z,91.95
2022-12-11T16:13:37.075Z,91.91
2022-12-11T16:16:39.141Z,93.50
2022-12-11T16:19:42.716Z,94.71
2022-12-11T16:22:44.870Z,94.35
2022-12-11T16:25:47.438Z,92.00
2022-12-11T16:28:49.522Z,91.78
2022-12-11T16:31:51.657Z,94.07
2022-12-11T16:34:54.224Z,95.16
2022-12-11T16:37:56.538Z,95.90
2022-12-11T16:41:04.649Z,97.82
2022-12-11T16:44:07.057Z,95.92
2022-12-11T16:47:09.187Z,98.03
2022-12-11T16:50:13.994Z,96.07
2022-12-11T16:53:17.691Z,98.77
2022-12-11T16:56:19.701Z,95.94
2022-12-11T16:59:21.661Z,88.46
2022-12-11T17:02:26.134Z,89.51
2022-12-11T17:05:28.145Z,91.50
2022-12-11T17:08:30.275Z,91.99
2022-12-11T17:11:32.311Z,92.81
2022-12-11T17:14:34.460Z,93.94
2022-12-11T17:17:36.568Z,94.80
2022-12-11T17:21:15.835Z,95.91
2022-12-11T17:24:49.729Z,97.40
2022-12-11T17:27:51.704Z,97.45
2022-12-11T17:30:54.281Z,96.19
2022-12-11T17:34:00.709Z,96.29
2022-12-11T17:37:02.969Z,96.21
2022-12-11T17:40:05.581Z,96.72
2022-12-11T17:43:09.545Z,97.02
2022-12-11T17:46:12.103Z,97.44
2022-12-11T17:49:14.126Z,97.20
2022-12-11T17:52:27.305Z,97.73
2022-12-11T17:55:31.650Z,98.27
2022-12-11T17:58:37.302Z,97.43
2022-12-11T18:01:39.421Z,96.25
2022-12-11T18:04:42.462Z,97.04
2022-12-11T18:07:44.569Z,97.44
2022-12-11T18:10:48.072Z,95.49
2022-12-11T18:13:53.676Z,97.18
2022-12-11T18:16:55.917Z,96.81
2022-12-11T18:19:58.041Z,98.24
2022-12-11T18:23:01.723Z,100.00
2022-12-11T18:26:03.868Z,100.00
2022-12-11T18:29:07.451Z,100.00
2022-12-11T18:32:09.632Z,100.00
2022-12-11T18:35:12.297Z,100.00
2022-12-11T18:38:16.729Z,100.00
2022-12-11T18:41:20.160Z,85.19
2022-12-11T18:44:22.846Z,75.19
2022-12-11T18:47:26.371Z,78.19
2022-12-11T18:50:28.426Z,82.85
2022-12-11T18:53:32.852Z,84.68
2022-12-11T18:56:35.067Z,83.84
2022-12-11T18:59:37.385Z,86.39
2022-12-11T19:02:39.592Z,83.09
2022-12-11T19:05:45.668Z,84.79
2022-12-11T19:08:48.253Z,81.42
2022-12-11T19:11:50.260Z,86.52
2022-12-11T19:14:52.331Z,92.54
2022-12-11T19:17:54.393Z,95.24
2022-12-11T19:21:08.053Z,98.18
2022-12-11T19:24:18.164Z,82.62
2022-12-11T19:27:22.636Z,63.52
2022-12-11T19:30:24.996Z,59.69
2022-12-11T19:33:28.511Z,57.84
2022-12-11T19:36:31.795Z,55.38
2022-12-11T19:39:33.953Z,59.19
2022-12-11T19:42:36.118Z,63.15
2022-12-11T19:45:38.771Z,67.21
2022-12-11T19:48:41.933Z,70.77
2022-12-11T19:51:44.118Z,73.24
2022-12-11T19:54:46.421Z,76.52
2022-12-11T19:57:48.473Z,78.80
2022-12-11T20:00:50.684Z,80.01
2022-12-11T20:03:55.044Z,82.61
2022-12-11T20:06:57.344Z,86.06
2022-12-11T20:10:00.526Z,71.75
2022-12-11T20:13:02.961Z,58.91
2022-12-11T20:16:06.720Z,57.23
2022-12-11T20:19:09.062Z,55.22
2022-12-11T20:22:11.704Z,53.36
2022-12-11T20:25:14.196Z,53.60
2022-12-11T20:28:16.527Z,51.24
2022-12-11T20:31:28.166Z,49.42
2022-12-11T20:34:30.439Z,49.43
2022-12-11T20:37:32.680Z,49.42
2022-12-11T20:40:39.430Z,51.69
2022-12-11T20:43:43.123Z,59.00
2022-12-11T20:46:45.351Z,62.21
2022-12-11T20:49:49.303Z,63.78
2022-12-11T20:52:51.918Z,65.63
2022-12-11T20:55:54.833Z,66.68
2022-12-11T20:58:58.502Z,68.13
2022-12-11T21:02:00.634Z,70.20
2022-12-11T21:05:03.611Z,70.68
2022-12-11T21:08:06.009Z,70.61
2022-12-11T21:11:09.309Z,72.08
2022-12-11T21:14:11.489Z,72.21
2022-12-11T21:17:13.528Z,72.86
2022-12-11T21:20:15.651Z,73.46
2022-12-11T21:23:17.892Z,74.67
2022-12-11T21:26:20.734Z,74.47
2022-12-11T21:29:28.043Z,74.96
2022-12-11T21:32:30.404Z,75.20
2022-12-11T21:35:32.942Z,74.89
2022-12-11T21:38:34.968Z,74.59
2022-12-11T21:41:36.990Z,75.05
2022-12-11T21:48:01.187Z,75.33
2022-12-11T21:51:08.851Z,75.16
2022-12-11T21:54:14.499Z,76.13
2022-12-11T21:57:20.049Z,75.95
2022-12-11T22:00:24.913Z,75.92
2022-12-11T22:03:27.313Z,76.69
2022-12-11T22:06:29.563Z,76.54
2022-12-11T22:09:31.571Z,76.87
2022-12-11T22:12:33.934Z,77.24
2022-12-11T22:15:36.015Z,76.90
2022-12-11T22:18:38.396Z,77.21
2022-12-11T22:21:41.079Z,76.75
2022-12-11T22:24:43.039Z,76.44
2022-12-11T22:27:46.083Z,76.88
2022-12-11T22:30:48.318Z,77.39
2022-12-11T22:33:53.800Z,76.67
2022-12-11T22:36:56.395Z,78.32
2022-12-11T22:39:58.715Z,80.34
2022-12-11T22:43:00.878Z,80.38
2022-12-11T22:46:03.420Z,80.08
2022-12-11T22:49:05.572Z,80.04
2022-12-11T22:52:07.570Z,79.26
2022-12-11T22:55:09.808Z,78.96
2022-12-11T22:58:12.422Z,79.18
2022-12-11T23:01:22.439Z,79.56
2022-12-11T23:04:24.892Z,79.70
2022-12-11T23:07:27.350Z,79.03
2022-12-11T23:10:29.450Z,79.52
2022-12-11T23:13:31.501Z,79.08
2022-12-11T23:16:33.900Z,78.71
2022-12-11T23:19:36.507Z,78.85
2022-12-11T23:22:38.718Z,77.90
2022-12-11T23:25:40.938Z,77.68
2022-12-11T23:28:42.993Z,77.29
2022-12-11T23:31:45.204Z,76.90
2022-12-11T23:34:47.371Z,77.28
2022-12-11T23:37:49.448Z,76.69
2022-12-11T23:40:52.463Z,75.99
2022-12-11T23:43:54.844Z,76.19
2022-12-11T23:46:56.907Z,76.42
2022-12-11T23:49:59.044Z,76.23
2022-12-11T23:53:01.172Z,77.16
2022-12-11T23:56:06.311Z,77.04
2022-12-11T23:59:12.609Z,76.94
